Time;durP1;ratioP1;P1;durP2;ratioP2;P2;SDS_P1;SDS_P2;PMS_P1;PMS_P2;Temp;Humidity;BMP_temperature;BMP_pressure;BME280_temperature;BME280_humidity;BME280_pressure;Samples;Min_cycle;Max_cycle;Signal;HPM_P1;HPM_P2
2024/01/24 00:02:21;;;;;;;4.03;2.77;;;0.20;92.90;;;;;;6268130;28;20190;-67
2024/01/24 00:05:22;;;;;;;4.03;2.67;;;0.10;92.20;;;;;;6267915;28;20209;-67
2024/01/24 00:08:23;;;;;;;4.27;2.80;;;0.20;93.20;;;;;;6269920;28;20188;-67
2024/01/24 00:11:23;;;;;;;3.87;2.60;;;0.20;92.80;;;;;;6257478;28;20191;-67
2024/01/24 00:14:25;;;;;;;3.07;2.17;;;0.20;92.00;;;;;;6256482;28;20184;-67
2024/01/24 00:17:25;;;;;;;3.50;3.17;;;0.20;92.80;;;;;;6272678;28;20349;-67
2024/01/24 00:20:26;;;;;;;6.40;2.53;;;0.20;92.60;;;;;;6268768;28;20196;-67
2024/01/24 00:23:27;;;;;;;9.37;2.30;;;0.30;91.90;;;;;;6265083;28;20198;-67
2024/01/24 00:26:27;;;;;;;3.00;1.90;;;0.30;92.10;;;;;;6278833;28;20188;-67
2024/01/24 00:29:28;;;;;;;4.40;3.07;;;0.30;89.50;;;;;;6282563;28;20190;-67
2024/01/24 00:32:29;;;;;;;6.30;3.33;;;0.30;90.50;;;;;;6271553;28;20189;-67
2024/01/24 00:35:29;;;;;;;4.23;3.30;;;0.30;91.20;;;;;;6254029;28;20212;-67
2024/01/24 00:38:30;;;;;;;5.57;3.47;;;0.30;92.20;;;;;;6287610;28;20245;-67
2024/01/24 00:41:31;;;;;;;4.10;3.03;;;0.30;91.70;;;;;;6264059;28;20188;-67
2024/01/24 00:44:32;;;;;;;3.40;2.87;;;0.30;91.40;;;;;;6257852;28;20208;-67
2024/01/24 00:47:33;;;;;;;5.60;2.50;;;0.30;91.20;;;;;;6259746;28;20275;-67
2024/01/24 00:50:34;;;;;;;4.13;2.50;;;0.40;91.60;;;;;;6268049;28;20180;-67
2024/01/24 00:53:37;;;;;;;4.03;2.43;;;0.40;92.00;;;;;;6264523;28;20268;-67
2024/01/24 00:56:40;;;;;;;5.97;2.73;;;0.50;92.20;;;;;;6294404;28;20181;-67
2024/01/24 00:59:40;;;;;;;4.57;2.83;;;0.50;91.40;;;;;;6263028;28;20301;-67
2024/01/24 01:02:41;;;;;;;3.73;2.77;;;0.50;91.50;;;;;;6258154;28;20197;-67
2024/01/24 01:05:42;;;;;;;4.63;2.43;;;0.50;91.70;;;;;;6260344;28;20208;-67
2024/01/24 01:08:42;;;;;;;6.10;2.80;;;0.60;93.00;;;;;;6279497;28;20218;-67
2024/01/24 01:11:43;;;;;;;5.00;2.93;;;0.60;91.70;;;;;;6288204;28;20219;-67
2024/01/24 01:14:44;;;;;;;2.60;2.23;;;0.60;92.60;;;;;;6275963;28;20262;-67
2024/01/24 01:17:44;;;;;;;4.60;3.00;;;0.60;91.70;;;;;;6272941;28;20246;-67
2024/01/24 01:20:45;;;;;;;4.23;2.20;;;0.60;92.40;;;;;;6273518;28;20197;-67
2024/01/24 01:23:46;;;;;;;3.63;2.57;;;0.60;92.10;;;;;;6280692;28;20228;-67
2024/01/24 01:26:46;;;;;;;5.07;2.27;;;0.60;93.30;;;;;;6270363;28;20192;-67
2024/01/24 01:29:47;;;;;;;2.77;1.93;;;0.60;94.00;;;;;;6260607;28;20214;-67
2024/01/24 01:32:48;;;;;;;3.37;2.00;;;0.60;94.00;;;;;;6267655;28;20191;-67
2024/01/24 01:35:48;;;;;;;2.87;1.90;;;0.60;94.80;;;;;;6263918;28;20220;-67
2024/01/24 01:38:49;;;;;;;2.53;1.60;;;0.70;94.10;;;;;;6264012;28;20217;-67
2024/01/24 01:41:51;;;;;;;2.37;1.90;;;0.70;94.00;;;;;;6298268;28;20186;-67
2024/01/24 01:44:52;;;;;;;3.20;2.10;;;0.70;94.00;;;;;;6292302;28;20212;-67
2024/01/24 01:47:52;;;;;;;3.00;1.87;;;0.60;94.20;;;;;;6285402;28;20180;-67
2024/01/24 01:50:54;;;;;;;3.50;1.80;;;0.60;93.60;;;;;;6276134;28;20188;-67
2024/01/24 01:53:55;;;;;;;2.70;2.10;;;0.70;93.70;;;;;;6268458;28;20330;-67
2024/01/24 01:56:56;;;;;;;4.10;2.27;;;0.80;93.20;;;;;;6307941;28;20188;-67
2024/01/24 01:59:58;;;;;;;2.83;1.87;;;0.80;93.50;;;;;;6299791;28;20231;-67
2024/01/24 02:02:59;;;;;;;2.43;1.80;;;0.80;93.70;;;;;;6283582;28;20200;-67
2024/01/24 02:06:00;;;;;;;3.27;2.10;;;0.80;92.60;;;;;;6266115;28;20212;-67
2024/01/24 02:09:01;;;;;;;4.77;2.07;;;0.80;93.90;;;;;;6258208;28;20184;-67
2024/01/24 02:12:02;;;;;;;5.70;2.07;;;0.80;93.60;;;;;;6291156;28;20252;-67
2024/01/24 02:15:03;;;;;;;3.07;2.20;;;0.90;93.40;;;;;;6267910;28;20205;-67
2024/01/24 02:18:05;;;;;;;2.27;2.03;;;1.00;93.00;;;;;;6304572;28;20181;-67
2024/01/24 02:21:06;;;;;;;2.40;1.93;;;0.90;92.10;;;;;;6265931;28;20188;-67
2024/01/24 02:24:09;;;;;;;2.07;1.80;;;0.90;93.00;;;;;;6270140;28;20215;-67
2024/01/24 02:27:09;;;;;;;2.20;1.83;;;1.00;92.70;;;;;;6282630;28;20275;-67
2024/01/24 02:30:10;;;;;;;2.53;2.07;;;0.90;92.70;;;;;;6268343;28;20196;-67
2024/01/24 02:33:12;;;;;;;6.50;2.70;;;1.00;93.30;;;;;;6288782;28;20233;-67
2024/01/24 02:36:14;;;;;;;2.77;2.27;;;1.00;93.00;;;;;;6287901;28;20185;-67
2024/01/24 02:39:15;;;;;;;3.67;2.40;;;1.00;93.10;;;;;;6287523;28;20197;-67
2024/01/24 02:42:16;;;;;;;3.23;2.50;;;1.00;93.20;;;;;;6264978;28;20184;-67
2024/01/24 02:45:16;;;;;;;3.10;2.13;;;1.00;93.10;;;;;;6282292;28;20294;-67
2024/01/24 02:48:17;;;;;;;4.23;2.37;;;1.00;93.40;;;;;;6275488;28;20193;-67
2024/01/24 02:51:27;;;;;;;4.33;2.30;;;1.00;93.20;;;;;;6265153;28;20181;-67
2024/01/24 02:54:29;;;;;;;3.53;2.20;;;1.00;92.60;;;;;;6266928;28;20193;-67
2024/01/24 02:57:30;;;;;;;2.20;1.83;;;1.00;92.50;;;;;;6283085;28;20196;-67
2024/01/24 03:00:30;;;;;;;2.53;2.27;;;1.00;92.20;;;;;;6272104;28;20300;-67
2024/01/24 03:03:31;;;;;;;4.20;2.57;;;1.00;92.70;;;;;;6268412;28;20283;-67
2024/01/24 03:06:32;;;;;;;4.27;2.20;;;1.00;91.60;;;;;;6261564;28;20188;-67
2024/01/24 03:09:32;;;;;;;4.60;2.47;;;1.00;92.60;;;;;;6275829;28;20193;-67
2024/01/24 03:12:33;;;;;;;3.27;2.47;;;1.00;93.20;;;;;;6276641;28;20258;-67
2024/01/24 03:15:34;;;;;;;6.63;3.07;;;1.00;92.50;;;;;;6272451;28;20284;-67
2024/01/24 03:18:38;;;;;;;5.10;2.37;;;1.00;92.30;;;;;;6265576;28;20201;-67
2024/01/24 03:21:40;;;;;;;3.50;2.70;;;1.00;92.20;;;;;;6273772;28;20343;-67
2024/01/24 03:24:40;;;;;;;5.97;2.60;;;1.00;92.70;;;;;;6260025;28;20251;-67
2024/01/24 03:27:41;;;;;;;3.90;2.67;;;1.00;92.50;;;;;;6252717;28;20189;-67
2024/01/24 03:30:42;;;;;;;3.47;2.70;;;0.90;92.20;;;;;;6265133;28;20196;-67
2024/01/24 03:33:43;;;;;;;3.07;2.30;;;0.90;92.50;;;;;;6269307;28;20193;-67
2024/01/24 03:36:43;;;;;;;4.10;2.30;;;0.90;91.50;;;;;;6281824;28;20187;-67
2024/01/24 03:39:44;;;;;;;3.47;2.17;;;0.90;91.70;;;;;;6264271;28;20227;-67
2024/01/24 03:42:45;;;;;;;4.67;1.93;;;1.00;90.50;;;;;;6267459;28;20192;-67
2024/01/24 03:45:46;;;;;;;3.80;2.00;;;0.90;88.70;;;;;;6289727;28;20234;-66
2024/01/24 03:48:47;;;;;;;2.77;2.03;;;0.90;91.70;;;;;;6286843;28;20222;-66
2024/01/24 03:51:48;;;;;;;4.47;2.30;;;0.90;91.00;;;;;;6277728;28;20259;-66
2024/01/24 03:54:48;;;;;;;6.10;2.00;;;1.00;91.90;;;;;;6277299;28;20197;-66
2024/01/24 03:57:49;;;;;;;3.10;2.13;;;0.90;91.50;;;;;;6260190;28;20352;-66
2024/01/24 04:00:52;;;;;;;2.40;1.73;;;0.90;92.30;;;;;;6263790;28;20227;-66
2024/01/24 04:03:52;;;;;;;2.90;1.97;;;0.80;91.40;;;;;;6265498;28;20238;-66
2024/01/24 04:06:54;;;;;;;2.80;2.50;;;0.80;91.70;;;;;;6262728;28;20197;-66
2024/01/24 04:09:55;;;;;;;2.97;2.37;;;0.80;91.70;;;;;;6267401;28;20204;-66
2024/01/24 04:12:55;;;;;;;5.23;2.83;;;0.80;92.50;;;;;;6261085;28;20187;-66
2024/01/24 04:15:56;;;;;;;2.70;1.90;;;0.80;92.40;;;;;;6254861;28;20196;-67
2024/01/24 04:18:57;;;;;;;3.27;2.23;;;0.80;92.60;;;;;;6287239;28;20258;-66
2024/01/24 04:21:57;;;;;;;3.53;2.20;;;0.80;92.50;;;;;;6260354;28;20188;-66
2024/01/24 04:24:58;;;;;;;3.47;2.50;;;0.70;92.80;;;;;;6272845;28;20204;-66
2024/01/24 04:27:59;;;;;;;3.10;2.10;;;0.60;92.70;;;;;;6290515;28;20191;-66
2024/01/24 04:31:00;;;;;;;2.27;1.93;;;0.60;92.30;;;;;;6263917;28;20236;-66
2024/01/24 04:34:00;;;;;;;2.97;2.27;;;0.50;92.40;;;;;;6298277;28;20231;-66
2024/01/24 04:37:01;;;;;;;3.40;2.07;;;0.60;93.60;;;;;;6292480;28;20217;-66
2024/01/24 04:40:02;;;;;;;2.70;1.90;;;0.50;92.60;;;;;;6298236;28;20199;-66
2024/01/24 04:43:03;;;;;;;5.13;2.30;;;0.60;93.30;;;;;;6268791;28;20196;-66
2024/01/24 04:46:03;;;;;;;4.00;2.13;;;0.50;92.30;;;;;;6263031;28;20209;-66
2024/01/24 04:49:04;;;;;;;2.50;1.93;;;0.50;93.20;;;;;;6278532;28;20192;-66
2024/01/24 04:52:05;;;;;;;4.27;2.43;;;0.50;92.80;;;;;;6279028;28;20189;-66
2024/01/24 04:55:11;;;;;;;4.40;2.40;;;0.50;93.70;;;;;;6276884;28;20193;-66
2024/01/24 04:58:15;;;;;;;3.30;2.40;;;0.40;92.50;;;;;;6305504;28;20181;-66
2024/01/24 05:01:16;;;;;;;4.17;2.30;;;0.40;93.10;;;;;;6304975;28;20232;-66
2024/01/24 05:04:16;;;;;;;5.10;2.50;;;0.30;93.00;;;;;;6281177;28;20219;-66
2024/01/24 05:07:17;;;;;;;3.20;2.30;;;0.30;92.90;;;;;;6267017;28;20211;-67
2024/01/24 05:10:18;;;;;;;3.93;2.17;;;0.20;92.40;;;;;;6268506;28;20223;-66
2024/01/24 05:13:19;;;;;;;3.30;2.13;;;0.20;92.30;;;;;;6266498;28;20206;-66
2024/01/24 05:16:19;;;;;;;4.80;2.60;;;0.10;91.70;;;;;;6270417;28;20195;-67
2024/01/24 05:19:20;;;;;;;5.43;2.00;;;0.00;93.40;;;;;;6270237;28;20193;-67
2024/01/24 05:22:21;;;;;;;1.93;1.70;;;0.20;94.10;;;;;;6261641;28;20260;-69
2024/01/24 05:25:22;;;;;;;2.63;2.07;;;0.20;93.90;;;;;;6266374;28;20212;-67
2024/01/24 05:28:22;;;;;;;3.07;2.00;;;0.20;93.90;;;;;;6282340;28;20188;-66
2024/01/24 05:31:23;;;;;;;4.20;2.33;;;0.20;94.00;;;;;;6278201;28;20197;-66
2024/01/24 05:34:24;;;;;;;3.17;1.70;;;0.20;93.80;;;;;;6258017;28;20188;-65
2024/01/24 05:37:24;;;;;;;2.50;1.73;;;0.20;93.60;;;;;;6260855;28;20194;-66
2024/01/24 05:40:25;;;;;;;2.23;1.70;;;0.10;93.00;;;;;;6286762;28;20283;-64
2024/01/24 05:43:26;;;;;;;3.10;2.13;;;0.00;94.00;;;;;;6276075;28;20190;-64
2024/01/24 05:46:27;;;;;;;6.00;4.13;;;0.00;93.20;;;;;;6272953;28;20230;-65
2024/01/24 05:49:27;;;;;;;7.07;4.67;;;0.10;92.80;;;;;;6273938;28;20198;-65
2024/01/24 05:52:28;;;;;;;8.17;3.10;;;0.10;92.70;;;;;;6258025;28;20190;-65
2024/01/24 05:55:29;;;;;;;4.47;3.17;;;0.20;93.40;;;;;;6271471;28;20275;-65
2024/01/24 05:58:29;;;;;;;4.97;3.50;;;0.20;93.00;;;;;;6261362;28;20197;-65
2024/01/24 06:01:30;;;;;;;3.07;2.57;;;0.20;93.30;;;;;;6274680;28;20231;-65
2024/01/24 06:04:30;;;;;;;4.50;3.20;;;0.20;93.30;;;;;;6273460;28;20291;-65
2024/01/24 06:07:31;;;;;;;5.67;3.30;;;0.30;93.20;;;;;;6287615;28;20240;-65
2024/01/24 06:10:33;;;;;;;3.40;2.40;;;0.30;92.50;;;;;;6296584;28;20273;-65
2024/01/24 06:13:34;;;;;;;3.73;2.10;;;0.30;91.90;;;;;;6309028;28;20173;-65
2024/01/24 06:16:35;;;;;;;2.17;1.80;;;0.40;92.60;;;;;;6297121;28;20233;-65
2024/01/24 06:19:36;;;;;;;2.53;2.33;;;0.40;91.80;;;;;;6276464;28;20188;-65
2024/01/24 06:22:36;;;;;;;2.30;1.70;;;0.40;93.00;;;;;;6271340;28;20234;-65
2024/01/24 06:25:37;;;;;;;3.10;2.13;;;0.40;92.00;;;;;;6306686;28;20229;-65
2024/01/24 06:28:38;;;;;;;1.47;1.17;;;0.40;93.20;;;;;;6274426;28;20192;-65
2024/01/24 06:31:38;;;;;;;5.50;2.30;;;0.30;91.50;;;;;;6267707;28;20193;-65
2024/01/24 06:34:39;;;;;;;3.17;2.10;;;0.30;93.20;;;;;;6286313;28;20246;-65
2024/01/24 06:37:39;;;;;;;2.97;1.63;;;0.30;93.60;;;;;;6266635;28;20264;-65
2024/01/24 06:40:40;;;;;;;2.47;1.63;;;0.30;92.80;;;;;;6269515;28;20233;-65
2024/01/24 06:43:42;;;;;;;4.10;2.10;;;0.30;93.00;;;;;;6265985;28;20191;-64
2024/01/24 06:46:44;;;;;;;2.23;1.80;;;0.30;93.20;;;;;;6267700;28;20180;-64
2024/01/24 06:49:45;;;;;;;2.67;2.30;;;0.40;92.70;;;;;;6304885;28;20180;-65
2024/01/24 06:52:45;;;;;;;2.37;1.77;;;0.40;91.30;;;;;;6277338;28;20181;-65
2024/01/24 06:55:46;;;;;;;3.00;1.70;;;0.40;91.90;;;;;;6284205;28;20201;-65
2024/01/24 06:58:47;;;;;;;2.13;1.43;;;0.50;92.10;;;;;;6262734;28;20188;-65
2024/01/24 07:01:48;;;;;;;2.73;1.80;;;0.60;91.40;;;;;;6272491;28;20251;-65
2024/01/24 07:04:48;;;;;;;4.07;1.67;;;0.60;91.70;;;;;;6268471;28;20220;-65
2024/01/24 07:07:49;;;;;;;3.63;1.80;;;0.80;92.10;;;;;;6267365;28;20214;-65
2024/01/24 07:10:50;;;;;;;2.40;1.63;;;0.80;92.40;;;;;;6267324;28;20176;-65
2024/01/24 07:13:51;;;;;;;2.33;2.13;;;0.90;92.00;;;;;;6279974;28;20191;-65
2024/01/24 07:16:51;;;;;;;2.30;1.80;;;1.00;92.20;;;;;;6273726;28;20184;-65
2024/01/24 07:19:52;;;;;;;3.97;2.43;;;1.00;91.70;;;;;;6282164;28;20185;-65
2024/01/24 07:22:53;;;;;;;5.20;2.30;;;1.00;91.00;;;;;;6266512;28;20189;-65
2024/01/24 07:25:54;;;;;;;3.10;2.40;;;;;;;;;;6282859;28;20212;-65
2024/01/24 07:28:55;;;;;;;3.80;1.93;;;;;;;;;;6283230;28;20198;-65
2024/01/24 07:31:56;;;;;;;5.53;2.20;;;;;;;;;;6287900;28;20185;-65
2024/01/24 07:34:58;;;;;;;9.07;4.53;;;;;;;;;;6284440;28;20189;-65
2024/01/24 07:37:59;;;;;;;7.30;3.40;;;;;;;;;;6297604;28;20190;-65
2024/01/24 07:41:00;;;;;;;4.50;2.83;;;1.10;91.40;;;;;;6283369;28;20192;-65
2024/01/24 07:44:01;;;;;;;4.07;2.13;;;1.40;90.60;;;;;;6258128;28;20217;-65
2024/01/24 07:47:03;;;;;;;3.00;2.33;;;1.40;90.90;;;;;;6286761;28;20191;-65
2024/01/24 07:50:07;;;;;;;6.07;3.37;;;;;;;;;;6273295;28;20546;-65
2024/01/24 07:53:09;;;;;;;2.70;1.77;;;;;;;;;;6305005;28;20185;-65
2024/01/24 07:56:11;;;;;;;5.13;3.00;;;;;;;;;;6292229;28;20200;-65
2024/01/24 07:59:16;;;;;;;4.93;3.60;;;;;;;;;;6288269;28;20186;-65
2024/01/24 08:02:17;;;;;;;4.20;1.90;;;;;;;;;;6281476;28;20213;-65
2024/01/24 08:05:18;;;;;;;2.60;1.83;;;;;;;;;;6297690;28;20222;-65
2024/01/24 08:08:19;;;;;;;2.20;1.97;;;;;;;;;;6296697;28;20184;-65
2024/01/24 08:11:22;;;;;;;3.43;2.43;;;;;;;;;;6284107;28;20185;-65
2024/01/24 08:14:23;;;;;;;5.77;3.87;;;;;;;;;;6283705;28;20211;-65
2024/01/24 08:17:25;;;;;;;7.13;4.13;;;;;;;;;;6287359;28;20188;-65
2024/01/24 08:20:27;;;;;;;10.87;5.87;;;;;;;;;;6293109;28;20207;-65
2024/01/24 08:23:28;;;;;;;11.03;6.90;;;;;;;;;;6294007;28;20250;-65
2024/01/24 08:26:29;;;;;;;8.27;5.43;;;;;;;;;;6304088;28;20219;-65
2024/01/24 08:29:30;;;;;;;9.07;4.57;;;;;;;;;;6288339;28;20204;-65
2024/01/24 08:32:31;;;;;;;8.63;4.17;;;;;;;;;;6281094;28;20198;-65
2024/01/24 08:35:35;;;;;;;7.47;4.20;;;;;;;;;;6286430;28;20230;-65
2024/01/24 08:38:36;;;;;;;7.70;4.77;;;;;;;;;;6289683;28;20192;-65
2024/01/24 08:41:37;;;;;;;7.73;5.00;;;;;;;;;;6295269;28;20204;-65
2024/01/24 08:44:38;;;;;;;6.53;4.73;;;;;;;;;;6301270;28;20208;-65
2024/01/24 08:47:40;;;;;;;7.23;4.63;;;;;;;;;;6289095;28;20281;-65
2024/01/24 08:50:41;;;;;;;7.27;4.23;;;;;;;;;;6296208;28;20191;-64
2024/01/24 08:53:42;;;;;;;7.83;4.60;;;;;;;;;;6274038;28;20201;-65
2024/01/24 08:56:42;;;;;;;5.33;4.00;;;1.50;90.60;;;;;;6285407;28;20192;-65
2024/01/24 08:59:43;;;;;;;6.73;4.50;;;2.70;88.00;;;;;;6270612;28;20250;-65
2024/01/24 09:02:44;;;;;;;7.57;3.90;;;;;;;;;;6264223;28;20196;-65
2024/01/24 09:05:45;;;;;;;6.77;3.60;;;;;;;;;;6298255;28;20292;-65
2024/01/24 09:08:46;;;;;;;5.63;3.30;;;;;;;;;;6278947;28;20189;-65
2024/01/24 09:11:48;;;;;;;3.47;2.50;;;;;;;;;;6271826;28;20200;-65
2024/01/24 09:14:48;;;;;;;7.27;3.27;;;2.80;88.20;;;;;;6286717;28;20215;-65
2024/01/24 09:17:50;;;;;;;3.93;2.40;;;3.50;83.00;;;;;;6261325;28;20224;-65
2024/01/24 09:20:51;;;;;;;3.83;2.60;;;3.60;83.50;;;;;;6285220;28;20224;-65
2024/01/24 09:23:52;;;;;;;4.47;2.07;;;3.70;82.80;;;;;;6258925;28;20234;-65
2024/01/24 09:26:52;;;;;;;3.73;2.20;;;3.80;83.40;;;;;;6275959;28;20188;-65
2024/01/24 09:29:53;;;;;;;4.77;2.70;;;3.90;82.90;;;;;;6303860;28;20182;-65
2024/01/24 09:32:54;;;;;;;5.03;2.60;;;3.90;82.10;;;;;;6266665;28;20872;-65
2024/01/24 09:35:55;;;;;;;4.13;2.60;;;4.00;79.10;;;;;;6268952;28;20192;-65
2024/01/24 09:38:56;;;;;;;5.23;2.50;;;4.10;80.60;;;;;;6290261;28;20189;-65
2024/01/24 09:41:57;;;;;;;3.93;2.30;;;4.20;80.70;;;;;;6261722;28;20226;-65
2024/01/24 09:44:59;;;;;;;3.73;2.50;;;4.20;81.20;;;;;;6269217;28;20232;-65
2024/01/24 09:48:00;;;;;;;3.60;2.73;;;4.40;79.50;;;;;;6278970;28;20197;-66
2024/01/24 09:51:01;;;;;;;5.30;2.83;;;4.40;80.00;;;;;;6274005;28;20200;-65
2024/01/24 09:54:06;;;;;;;4.43;3.17;;;4.40;78.60;;;;;;6268551;28;20219;-65
2024/01/24 09:57:08;;;;;;;5.97;3.33;;;4.50;77.70;;;;;;6284770;28;20192;-65
2024/01/24 10:00:09;;;;;;;2.97;2.50;;;4.50;77.90;;;;;;6282959;28;20255;-65
2024/01/24 10:03:11;;;;;;;4.03;2.73;;;4.50;78.50;;;;;;6282993;28;20674;-65
2024/01/24 10:06:14;;;;;;;6.37;2.73;;;4.50;77.10;;;;;;6270184;28;20212;-65
2024/01/24 10:09:15;;;;;;;4.13;3.10;;;4.50;77.00;;;;;;6308952;28;20277;-65
2024/01/24 10:12:16;;;;;;;5.30;3.27;;;;;;;;;;6285604;28;20188;-65
2024/01/24 10:15:17;;;;;;;4.83;3.03;;;4.60;77.60;;;;;;6281352;28;20267;-65
2024/01/24 10:18:19;;;;;;;5.50;2.90;;;;;;;;;;6281353;28;20193;-66
2024/01/24 10:21:20;;;;;;;7.37;3.57;;;;;;;;;;6296195;28;20200;-66
2024/01/24 10:24:22;;;;;;;6.97;4.07;;;;;;;;;;6294150;28;20215;-65
2024/01/24 10:27:23;;;;;;;5.03;3.73;;;;;;;;;;6285254;28;20189;-65
2024/01/24 10:30:25;;;;;;;4.60;3.37;;;;;;;;;;6301372;28;20195;-65
2024/01/24 10:33:27;;;;;;;6.00;3.67;;;;;;;;;;6280858;28;20196;-65
2024/01/24 10:36:28;;;;;;;5.80;3.20;;;;;;;;;;6296628;28;20210;-65
2024/01/24 10:39:33;;;;;;;8.47;4.73;;;;;;;;;;6297386;28;20223;-65
2024/01/24 10:42:39;;;;;;;8.07;4.80;;;;;;;;;;6305266;28;20185;-65
2024/01/24 10:45:48;;;;;;;4.57;3.60;;;4.90;78.00;;;;;;6305300;28;20239;-65
2024/01/24 10:48:51;;;;;;;6.07;3.43;;;5.60;72.10;;;;;;6307821;28;20216;-65
2024/01/24 10:51:52;;;;;;;5.43;3.60;;;5.70;74.30;;;;;;6295406;28;20193;-65
2024/01/24 10:54:55;;;;;;;10.53;3.60;;;5.80;73.20;;;;;;6278660;28;20192;-65
2024/01/24 10:57:56;;;;;;;6.43;3.60;;;5.80;73.10;;;;;;6291473;28;20198;-65
2024/01/24 11:00:57;;;;;;;5.67;4.00;;;5.80;72.50;;;;;;6286128;28;20247;-65
2024/01/24 11:04:00;;;;;;;8.27;3.63;;;5.80;71.60;;;;;;6262041;28;20185;-65
2024/01/24 11:07:15;;;;;;;6.67;4.20;;;5.90;72.10;;;;;;6307293;28;20271;-65
2024/01/24 11:10:36;;;;;;;7.40;4.40;;;5.90;69.80;;;;;;6299351;28;20201;-65
2024/01/24 11:13:37;;;;;;;7.33;4.17;;;6.00;71.40;;;;;;6297616;28;20186;-65
2024/01/24 11:16:39;;;;;;;6.80;4.37;;;6.10;70.40;;;;;;6281740;28;20192;-65
2024/01/24 11:19:40;;;;;;;7.20;4.93;;;6.10;71.90;;;;;;6253428;28;20202;-65
2024/01/24 11:22:41;;;;;;;10.20;4.97;;;6.30;70.10;;;;;;6291621;28;20282;-65
2024/01/24 11:25:42;;;;;;;7.80;5.10;;;;;;;;;;6270667;28;20310;-65
2024/01/24 11:28:43;;;;;;;9.50;4.70;;;;;;;;;;6293524;28;20252;-65
2024/01/24 11:31:44;;;;;;;8.20;5.00;;;6.40;70.20;;;;;;6297808;28;20186;-65
2024/01/24 11:34:45;;;;;;;5.37;4.70;;;6.70;67.20;;;;;;6267208;28;20205;-65
2024/01/24 11:37:45;;;;;;;8.70;5.17;;;6.80;68.00;;;;;;6286925;28;20245;-65
2024/01/24 11:40:50;;;;;;;7.57;4.53;;;6.80;68.60;;;;;;6264694;28;20211;-65
2024/01/24 11:43:51;;;;;;;9.77;5.13;;;6.90;68.10;;;;;;6298350;28;20196;-65
2024/01/24 11:46:51;;;;;;;10.67;5.40;;;6.90;67.30;;;;;;6265946;28;20263;-65
2024/01/24 11:49:52;;;;;;;8.13;6.10;;;6.90;67.50;;;;;;6282753;28;20316;-65
2024/01/24 11:52:59;;;;;;;9.97;6.27;;;6.90;67.50;;;;;;6259960;28;20265;-65
2024/01/24 11:56:03;;;;;;;12.23;5.87;;;6.90;67.30;;;;;;6278121;28;20270;-65
2024/01/24 11:59:03;;;;;;;10.40;5.90;;;6.90;68.60;;;;;;6305906;28;20184;-65
2024/01/24 12:02:05;;;;;;;8.57;6.93;;;7.00;68.60;;;;;;6240382;28;20236;-65
2024/01/24 12:05:06;;;;;;;12.57;8.20;;;7.00;67.80;;;;;;6248138;28;20215;-65
2024/01/24 12:08:07;;;;;;;17.80;9.93;;;7.00;67.60;;;;;;6232409;28;20201;-65
2024/01/24 12:11:11;;;;;;;13.03;9.30;;;7.00;67.90;;;;;;6250525;28;20193;-65
2024/01/24 12:14:12;;;;;;;12.13;9.33;;;7.00;65.90;;;;;;6243864;28;20325;-65
2024/01/24 12:17:13;;;;;;;10.60;7.73;;;7.00;68.00;;;;;;6241223;28;20190;-65
2024/01/24 12:20:16;;;;;;;15.40;7.80;;;7.00;69.00;;;;;;6253275;28;20196;-65
2024/01/24 12:23:17;;;;;;;10.07;7.90;;;7.10;66.70;;;;;;6248242;28;20221;-65
2024/01/24 12:26:19;;;;;;;12.20;7.20;;;7.20;68.20;;;;;;6255241;28;20260;-65
2024/01/24 12:29:21;;;;;;;10.23;6.57;;;7.10;66.60;;;;;;6226622;28;20214;-66
2024/01/24 12:32:21;;;;;;;12.43;6.87;;;7.20;68.40;;;;;;6250625;28;20265;-66
2024/01/24 12:35:26;;;;;;;9.97;6.10;;;;;;;;;;6255071;28;20202;-65
2024/01/24 12:38:26;;;;;;;8.97;6.53;;;7.20;67.70;;;;;;6271777;28;20185;-66
2024/01/24 12:41:27;;;;;;;10.00;6.17;;;7.40;68.20;;;;;;6251487;28;20189;-65
2024/01/24 12:44:29;;;;;;;10.17;6.70;;;7.50;67.90;;;;;;6251025;28;20294;-65
2024/01/24 12:47:32;;;;;;;20.17;7.83;;;7.50;65.60;;;;;;6274933;28;20196;-65
2024/01/24 12:50:33;;;;;;;11.87;6.40;;;7.50;64.60;;;;;;6251210;28;20198;-65
2024/01/24 12:53:33;;;;;;;9.40;6.83;;;7.50;64.30;;;;;;6233280;28;20186;-65
2024/01/24 12:56:41;;;;;;;11.33;6.43;;;7.50;65.70;;;;;;6231424;28;20226;-65
2024/01/24 12:59:42;;;;;;;9.37;6.37;;;7.60;66.80;;;;;;6262708;28;20260;-65
2024/01/24 13:02:42;;;;;;;17.50;6.37;;;7.70;63.30;;;;;;6277655;28;20295;-65
2024/01/24 13:05:43;;;;;;;8.60;5.47;;;7.80;63.00;;;;;;6295837;28;20208;-65
2024/01/24 13:08:44;;;;;;;12.27;5.10;;;;;;;;;;6273377;28;20188;-65
2024/01/24 13:11:45;;;;;;;10.50;5.10;;;;;;;;;;6295500;28;20188;-65
2024/01/24 13:14:46;;;;;;;7.00;4.80;;;;;;;;;;6295111;28;20276;-65
2024/01/24 13:17:47;;;;;;;8.10;5.07;;;;;;;;;;6289655;28;20240;-65
2024/01/24 13:20:48;;;;;;;8.17;5.83;;;;;;;;;;6294453;28;20201;-65
2024/01/24 13:23:49;;;;;;;10.40;5.17;;;8.00;64.20;;;;;;6313393;28;20192;-65
2024/01/24 13:26:50;;;;;;;10.07;3.93;;;9.00;60.40;;;;;;6254546;28;20216;-65
2024/01/24 13:29:51;;;;;;;7.40;4.27;;;9.60;59.70;;;;;;6254121;28;20200;-65
2024/01/24 13:32:52;;;;;;;11.47;5.10;;;9.50;59.60;;;;;;6290698;28;20193;-64
2024/01/24 13:35:53;;;;;;;9.13;4.23;;;9.70;58.20;;;;;;6309322;28;20197;-64
2024/01/24 13:38:54;;;;;;;6.83;4.37;;;9.90;58.10;;;;;;6272431;28;20201;-64
2024/01/24 13:41:55;;;;;;;7.90;4.73;;;10.10;57.80;;;;;;6270281;28;20215;-64
2024/01/24 13:44:56;;;;;;;9.83;5.03;;;10.20;56.50;;;;;;6276103;28;20220;-63
2024/01/24 13:47:57;;;;;;;10.77;6.03;;;10.30;56.00;;;;;;6273021;28;20262;-64
2024/01/24 13:50:57;;;;;;;13.00;5.70;;;10.30;55.30;;;;;;6280788;28;20200;-64
2024/01/24 13:53:58;;;;;;;12.37;6.17;;;10.50;56.00;;;;;;6281369;28;20185;-64
2024/01/24 13:56:59;;;;;;;10.73;6.23;;;10.70;54.20;;;;;;6303611;28;20231;-64
2024/01/24 14:00:00;;;;;;;11.17;6.43;;;10.80;53.70;;;;;;6283446;28;20238;-64
2024/01/24 14:03:00;;;;;;;10.53;5.43;;;10.90;53.70;;;;;;6275299;28;20189;-64
2024/01/24 14:06:01;;;;;;;14.47;6.83;;;10.90;54.10;;;;;;6268331;28;20210;-64
2024/01/24 14:09:02;;;;;;;10.50;6.07;;;;;;;;;;6279356;28;20205;-64
2024/01/24 14:12:04;;;;;;;8.90;5.67;;;11.00;53.60;;;;;;6305057;28;20190;-64
2024/01/24 14:15:05;;;;;;;7.80;5.30;;;11.10;53.00;;;;;;6277693;28;20187;-64
2024/01/24 14:18:06;;;;;;;7.10;4.93;;;11.00;52.50;;;;;;6269339;28;20649;-64
2024/01/24 14:21:07;;;;;;;15.37;6.10;;;11.00;54.00;;;;;;6284918;28;20191;-64
2024/01/24 14:24:07;;;;;;;13.80;5.30;;;10.80;53.90;;;;;;6272402;28;20187;-64
2024/01/24 14:27:08;;;;;;;17.40;6.80;;;10.80;54.30;;;;;;6288451;28;20199;-64
2024/01/24 14:30:09;;;;;;;11.27;5.27;;;10.70;52.60;;;;;;6270621;28;20191;-64
2024/01/24 14:33:10;;;;;;;11.33;5.63;;;10.70;54.80;;;;;;6292261;28;20300;-64
2024/01/24 14:36:11;;;;;;;7.47;5.37;;;10.70;53.90;;;;;;6268377;28;20226;-64
2024/01/24 14:39:11;;;;;;;10.30;5.57;;;10.70;55.10;;;;;;6286463;28;20249;-66
2024/01/24 14:42:14;;;;;;;7.60;5.57;;;10.60;53.70;;;;;;6279304;28;20205;-67
2024/01/24 14:45:15;;;;;;;10.50;5.47;;;10.60;54.20;;;;;;6302278;28;20277;-64
2024/01/24 14:48:16;;;;;;;13.53;5.83;;;10.50;54.50;;;;;;6287585;28;20277;-62
2024/01/24 14:51:17;;;;;;;8.57;5.67;;;10.50;55.10;;;;;;6277511;28;20272;-63
2024/01/24 14:54:17;;;;;;;15.83;5.83;;;10.40;56.20;;;;;;6262440;28;20190;-62
2024/01/24 14:57:18;;;;;;;15.13;4.87;;;10.30;55.20;;;;;;6280959;28;20189;-63
2024/01/24 15:00:19;;;;;;;13.33;5.20;;;10.20;56.10;;;;;;6258818;28;20302;-63
2024/01/24 15:03:20;;;;;;;9.10;5.47;;;10.10;56.30;;;;;;6277012;28;20221;-63
2024/01/24 15:06:21;;;;;;;27.30;6.50;;;10.00;55.50;;;;;;6297982;28;20219;-63
2024/01/24 15:09:22;;;;;;;12.00;5.87;;;9.90;55.90;;;;;;6261241;28;20186;-63
2024/01/24 15:12:22;;;;;;;11.87;6.80;;;9.70;57.60;;;;;;6251598;28;20241;-63
2024/01/24 15:15:23;;;;;;;17.70;6.90;;;9.60;56.40;;;;;;6276201;28;20183;-63
2024/01/24 15:18:24;;;;;;;11.40;5.43;;;9.50;57.10;;;;;;6254771;28;20189;-63
2024/01/24 15:21:26;;;;;;;17.57;6.20;;;9.40;57.50;;;;;;6270503;28;20202;-67
2024/01/24 15:24:27;;;;;;;12.23;6.13;;;9.00;58.30;;;;;;6264978;28;20293;-68
2024/01/24 15:27:28;;;;;;;15.83;6.10;;;9.00;57.60;;;;;;6274025;28;20193;-69
2024/01/24 15:30:28;;;;;;;7.87;5.50;;;8.80;58.40;;;;;;6270206;28;20213;-69
2024/01/24 15:33:31;;;;;;;14.97;6.43;;;8.70;59.90;;;;;;6277497;28;20200;-70
2024/01/24 15:36:32;;;;;;;11.53;6.10;;;8.60;59.10;;;;;;6275318;28;20193;-70
2024/01/24 15:39:33;;;;;;;12.00;5.57;;;8.50;60.50;;;;;;6253969;28;20200;-69
2024/01/24 15:42:40;;;;;;;8.57;5.53;;;8.30;61.60;;;;;;6266742;28;20196;-69
2024/01/24 15:45:42;;;;;;;12.53;5.67;;;8.20;61.70;;;;;;6262009;28;20217;-70
2024/01/24 15:48:42;;;;;;;15.63;6.37;;;8.00;61.70;;;;;;6278770;28;20243;-70
2024/01/24 15:51:43;;;;;;;8.70;5.57;;;7.90;61.20;;;;;;6256193;28;20189;-69
2024/01/24 15:54:44;;;;;;;8.37;5.40;;;7.80;62.90;;;;;;6253277;28;20211;-70
2024/01/24 15:57:44;;;;;;;8.30;5.23;;;7.50;62.70;;;;;;6259649;28;20235;-70
2024/01/24 16:00:45;;;;;;;6.97;5.00;;;7.40;63.80;;;;;;6246363;28;20250;-70
2024/01/24 16:03:46;;;;;;;7.13;5.30;;;7.30;64.50;;;;;;6258525;28;20191;-70
2024/01/24 16:06:47;;;;;;;11.10;5.17;;;7.20;65.10;;;;;;6236673;28;20310;-70
2024/01/24 16:09:47;;;;;;;7.87;5.27;;;7.00;64.50;;;;;;6243668;28;20182;-70
2024/01/24 16:12:48;;;;;;;10.60;5.73;;;;;;;;;;6246291;28;20185;-69